sensor_id;sensor_type;location;lat;lon;timestamp;temperature;humidity
65371;DHT22;58485;59.934;30.352;2022-08-21T00:00:30;27.74;47.07
65371;DHT22;58485;59.934;30.352;2022-08-21T00:01:24;27.74;47.05
65371;DHT22;58485;59.934;30.352;2022-08-21T00:02:19;27.73;47.06
65371;DHT22;58485;59.934;30.352;2022-08-21T00:03:14;27.74;47.07
65371;DHT22;58485;59.934;30.352;2022-08-21T00:04:07;27.72;47.07
65371;DHT22;58485;59.934;30.352;2022-08-21T00:04:59;27.73;47.10
65371;DHT22;58485;59.934;30.352;2022-08-21T00:05:51;27.72;47.09
65371;DHT22;58485;59.934;30.352;2022-08-21T00:06:44;27.72;47.09
65371;DHT22;58485;59.934;30.352;2022-08-21T00:07:35;27.71;47.10
65371;DHT22;58485;59.934;30.352;2022-08-21T00:08:27;27.71;47.11
65371;DHT22;58485;59.934;30.352;2022-08-21T00:09:19;27.71;47.11
65371;DHT22;58485;59.934;30.352;2022-08-21T00:10:12;27.71;47.12
65371;DHT22;58485;59.934;30.352;2022-08-21T00:11:05;27.71;47.12
65371;DHT22;58485;59.934;30.352;2022-08-21T00:11:57;27.70;47.12
65371;DHT22;58485;59.934;30.352;2022-08-21T00:12:49;27.70;47.10
65371;DHT22;58485;59.934;30.352;2022-08-21T00:13:41;27.69;47.12
65371;DHT22;58485;59.934;30.352;2022-08-21T00:14:33;27.68;47.15
65371;DHT22;58485;59.934;30.352;2022-08-21T00:15:28;27.70;47.16
65371;DHT22;58485;59.934;30.352;2022-08-21T00:16:21;27.69;47.15
65371;DHT22;58485;59.934;30.352;2022-08-21T00:17:13;27.68;47.15
65371;DHT22;58485;59.934;30.352;2022-08-21T00:18:05;27.67;47.15
65371;DHT22;58485;59.934;30.352;2022-08-21T00:18:59;27.68;47.16
65371;DHT22;58485;59.934;30.352;2022-08-21T00:19:51;27.68;47.14
65371;DHT22;58485;59.934;30.352;2022-08-21T00:20:44;27.68;47.15
65371;DHT22;58485;59.934;30.352;2022-08-21T00:21:36;27.67;47.13
65371;DHT22;58485;59.934;30.352;2022-08-21T00:22:28;27.67;47.13
65371;DHT22;58485;59.934;30.352;2022-08-21T00:23:20;27.68;47.15
65371;DHT22;58485;59.934;30.352;2022-08-21T00:24:12;27.66;47.16
65371;DHT22;58485;59.934;30.352;2022-08-21T00:25:05;27.67;47.19
65371;DHT22;58485;59.934;30.352;2022-08-21T00:25:57;27.65;47.18
65371;DHT22;58485;59.934;30.352;2022-08-21T00:26:50;27.65;47.18
65371;DHT22;58485;59.934;30.352;2022-08-21T00:27:42;27.66;47.18
65371;DHT22;58485;59.934;30.352;2022-08-21T00:28:34;27.65;47.18
65371;DHT22;58485;59.934;30.352;2022-08-21T00:29:25;27.65;47.18
65371;DHT22;58485;59.934;30.352;2022-08-21T00:30:18;27.64;47.19
65371;DHT22;58485;59.934;30.352;2022-08-21T00:31:10;27.64;47.20
65371;DHT22;58485;59.934;30.352;2022-08-21T00:32:03;27.64;47.21
65371;DHT22;58485;59.934;30.352;2022-08-21T00:32:56;27.63;47.21
65371;DHT22;58485;59.934;30.352;2022-08-21T00:33:49;27.64;47.20
65371;DHT22;58485;59.934;30.352;2022-08-21T00:34:42;27.63;47.24
65371;DHT22;58485;59.934;30.352;2022-08-21T00:35:36;27.63;47.25
65371;DHT22;58485;59.934;30.352;2022-08-21T00:36:29;27.63;47.28
65371;DHT22;58485;59.934;30.352;2022-08-21T00:37:21;27.63;47.29
65371;DHT22;58485;59.934;30.352;2022-08-21T00:38:13;27.63;47.29
65371;DHT22;58485;59.934;30.352;2022-08-21T00:39:07;27.60;47.31
65371;DHT22;58485;59.934;30.352;2022-08-21T00:39:59;27.60;47.32
65371;DHT22;58485;59.934;30.352;2022-08-21T00:40:53;27.60;47.34
65371;DHT22;58485;59.934;30.352;2022-08-21T00:41:45;27.60;47.32
65371;DHT22;58485;59.934;30.352;2022-08-21T00:42:37;27.59;47.33
65371;DHT22;58485;59.934;30.352;2022-08-21T00:43:34;27.59;47.41
65371;DHT22;58485;59.934;30.352;2022-08-21T00:44:27;27.58;47.37
65371;DHT22;58485;59.934;30.352;2022-08-21T00:45:19;27.60;47.41
65371;DHT22;58485;59.934;30.352;2022-08-21T00:46:12;27.59;47.42
65371;DHT22;58485;59.934;30.352;2022-08-21T00:47:03;27.57;47.41
65371;DHT22;58485;59.934;30.352;2022-08-21T00:47:56;27.58;47.42
65371;DHT22;58485;59.934;30.352;2022-08-21T00:48:47;27.58;47.43
65371;DHT22;58485;59.934;30.352;2022-08-21T00:49:41;27.58;47.42
65371;DHT22;58485;59.934;30.352;2022-08-21T00:50:35;27.58;47.46
65371;DHT22;58485;59.934;30.352;2022-08-21T00:51:36;27.57;47.49
65371;DHT22;58485;59.934;30.352;2022-08-21T00:52:32;27.57;47.49
65371;DHT22;58485;59.934;30.352;2022-08-21T00:53:27;27.57;47.47
65371;DHT22;58485;59.934;30.352;2022-08-21T00:54:21;27.56;47.47
65371;DHT22;58485;59.934;30.352;2022-08-21T00:55:15;27.56;47.44
65371;DHT22;58485;59.934;30.352;2022-08-21T00:56:09;27.56;47.47
65371;DHT22;58485;59.934;30.352;2022-08-21T00:57:09;27.56;47.49
65371;DHT22;58485;59.934;30.352;2022-08-21T00:58:02;27.55;47.46
65371;DHT22;58485;59.934;30.352;2022-08-21T00:58:56;27.55;47.45
65371;DHT22;58485;59.934;30.352;2022-08-21T00:59:50;27.53;47.46
65371;DHT22;58485;59.934;30.352;2022-08-21T01:00:49;27.54;47.49
65371;DHT22;58485;59.934;30.352;2022-08-21T01:01:40;27.54;47.47
65371;DHT22;58485;59.934;30.352;2022-08-21T01:02:33;27.53;47.49
65371;DHT22;58485;59.934;30.352;2022-08-21T01:03:24;27.53;47.49
65371;DHT22;58485;59.934;30.352;2022-08-21T01:04:17;27.53;47.50
65371;DHT22;58485;59.934;30.352;2022-08-21T01:05:10;27.52;47.49
65371;DHT22;58485;59.934;30.352;2022-08-21T01:06:03;27.52;47.51
65371;DHT22;58485;59.934;30.352;2022-08-21T01:06:55;27.51;47.51
65371;DHT22;58485;59.934;30.352;2022-08-21T01:07:48;27.52;47.52
65371;DHT22;58485;59.934;30.352;2022-08-21T01:08:39;27.52;47.52
65371;DHT22;58485;59.934;30.352;2022-08-21T01:09:32;27.51;47.53
65371;DHT22;58485;59.934;30.352;2022-08-21T01:10:23;27.52;47.52
65371;DHT22;58485;59.934;30.352;2022-08-21T01:11:16;27.50;47.54
65371;DHT22;58485;59.934;30.352;2022-08-21T01:12:08;27.51;47.52
65371;DHT22;58485;59.934;30.352;2022-08-21T01:13:01;27.47;47.51
65371;DHT22;58485;59.934;30.352;2022-08-21T01:13:53;27.50;47.53
65371;DHT22;58485;59.934;30.352;2022-08-21T01:14:45;27.50;47.52
65371;DHT22;58485;59.934;30.352;2022-08-21T01:15:41;27.49;47.54
65371;DHT22;58485;59.934;30.352;2022-08-21T01:16:35;27.49;47.54
65371;DHT22;58485;59.934;30.352;2022-08-21T01:17:27;27.47;47.55
65371;DHT22;58485;59.934;30.352;2022-08-21T01:18:20;27.49;47.57
65371;DHT22;58485;59.934;30.352;2022-08-21T01:19:12;27.47;47.55
65371;DHT22;58485;59.934;30.352;2022-08-21T01:20:08;27.46;47.57
65371;DHT22;58485;59.934;30.352;2022-08-21T01:21:06;27.46;47.57
65371;DHT22;58485;59.934;30.352;2022-08-21T01:21:59;27.47;47.55
65371;DHT22;58485;59.934;30.352;2022-08-21T01:22:50;27.46;47.57
65371;DHT22;58485;59.934;30.352;2022-08-21T01:23:45;27.46;47.60
65371;DHT22;58485;59.934;30.352;2022-08-21T01:24:37;27.46;47.60
65371;DHT22;58485;59.934;30.352;2022-08-21T01:25:30;27.45;47.61
65371;DHT22;58485;59.934;30.352;2022-08-21T01:26:27;27.45;47.64
65371;DHT22;58485;59.934;30.352;2022-08-21T01:27:21;27.45;47.63
65371;DHT22;58485;59.934;30.352;2022-08-21T01:28:14;27.46;47.64
65371;DHT22;58485;59.934;30.352;2022-08-21T01:29:20;27.45;47.69
65371;DHT22;58485;59.934;30.352;2022-08-21T01:30:20;27.43;47.69
65371;DHT22;58485;59.934;30.352;2022-08-21T01:31:17;27.43;47.70
65371;DHT22;58485;59.934;30.352;2022-08-21T01:32:12;27.43;47.69
65371;DHT22;58485;59.934;30.352;2022-08-21T01:33:06;27.43;47.68
65371;DHT22;58485;59.934;30.352;2022-08-21T01:33:57;27.42;47.68
65371;DHT22;58485;59.934;30.352;2022-08-21T01:34:50;27.43;47.67
65371;DHT22;58485;59.934;30.352;2022-08-21T01:35:42;27.42;47.69
65371;DHT22;58485;59.934;30.352;2022-08-21T01:36:35;27.42;47.72
65371;DHT22;58485;59.934;30.352;2022-08-21T01:37:27;27.42;47.73
65371;DHT22;58485;59.934;30.352;2022-08-21T01:38:19;27.41;47.73
65371;DHT22;58485;59.934;30.352;2022-08-21T01:39:11;27.41;47.76
65371;DHT22;58485;59.934;30.352;2022-08-21T01:40:04;27.41;47.79
65371;DHT22;58485;59.934;30.352;2022-08-21T01:40:56;27.42;47.79
65371;DHT22;58485;59.934;30.352;2022-08-21T01:41:48;27.41;47.80
65371;DHT22;58485;59.934;30.352;2022-08-21T01:42:41;27.41;47.79
65371;DHT22;58485;59.934;30.352;2022-08-21T01:43:33;27.41;47.78
65371;DHT22;58485;59.934;30.352;2022-08-21T01:44:25;27.41;47.81
65371;DHT22;58485;59.934;30.352;2022-08-21T01:45:17;27.41;47.79
65371;DHT22;58485;59.934;30.352;2022-08-21T01:46:11;27.41;47.80
65371;DHT22;58485;59.934;30.352;2022-08-21T01:47:06;27.40;47.81
65371;DHT22;58485;59.934;30.352;2022-08-21T01:47:59;27.40;47.79
65371;DHT22;58485;59.934;30.352;2022-08-21T01:48:51;27.41;47.79
65371;DHT22;58485;59.934;30.352;2022-08-21T01:49:43;27.40;47.77
65371;DHT22;58485;59.934;30.352;2022-08-21T01:50:36;27.40;47.76
65371;DHT22;58485;59.934;30.352;2022-08-21T01:51:28;27.39;47.76
65371;DHT22;58485;59.934;30.352;2022-08-21T01:52:22;27.39;47.77
65371;DHT22;58485;59.934;30.352;2022-08-21T01:53:13;27.39;47.76
65371;DHT22;58485;59.934;30.352;2022-08-21T01:54:06;27.39;47.74
65371;DHT22;58485;59.934;30.352;2022-08-21T01:54:57;27.38;47.74
65371;DHT22;58485;59.934;30.352;2022-08-21T01:55:49;27.38;47.75
65371;DHT22;58485;59.934;30.352;2022-08-21T01:56:44;27.39;47.74
65371;DHT22;58485;59.934;30.352;2022-08-21T01:57:37;27.37;47.74
65371;DHT22;58485;59.934;30.352;2022-08-21T01:58:29;27.39;47.76
65371;DHT22;58485;59.934;30.352;2022-08-21T01:59:22;27.37;47.73
65371;DHT22;58485;59.934;30.352;2022-08-21T02:00:16;27.38;47.75
65371;DHT22;58485;59.934;30.352;2022-08-21T02:01:10;27.37;47.75
65371;DHT22;58485;59.934;30.352;2022-08-21T02:02:01;27.37;47.74
65371;DHT22;58485;59.934;30.352;2022-08-21T02:02:53;27.37;47.73
65371;DHT22;58485;59.934;30.352;2022-08-21T02:03:45;27.37;47.76
65371;DHT22;58485;59.934;30.352;2022-08-21T02:04:36;27.36;47.75
65371;DHT22;58485;59.934;30.352;2022-08-21T02:05:28;27.37;47.73
65371;DHT22;58485;59.934;30.352;2022-08-21T02:06:19;27.36;47.73
65371;DHT22;58485;59.934;30.352;2022-08-21T02:07:12;27.36;47.74
65371;DHT22;58485;59.934;30.352;2022-08-21T02:08:06;27.36;47.74
65371;DHT22;58485;59.934;30.352;2022-08-21T02:08:58;27.37;47.76
65371;DHT22;58485;59.934;30.352;2022-08-21T02:09:50;27.35;47.76
65371;DHT22;58485;59.934;30.352;2022-08-21T02:10:42;27.36;47.77
65371;DHT22;58485;59.934;30.352;2022-08-21T02:11:34;27.35;47.79
65371;DHT22;58485;59.934;30.352;2022-08-21T02:12:27;27.35;47.79
65371;DHT22;58485;59.934;30.352;2022-08-21T02:13:18;27.35;47.80
65371;DHT22;58485;59.934;30.352;2022-08-21T02:14:12;27.34;47.81
65371;DHT22;58485;59.934;30.352;2022-08-21T02:15:07;27.34;47.83
65371;DHT22;58485;59.934;30.352;2022-08-21T02:16:00;27.34;47.83
65371;DHT22;58485;59.934;30.352;2022-08-21T02:16:51;27.34;47.84
65371;DHT22;58485;59.934;30.352;2022-08-21T02:17:45;27.32;47.85
65371;DHT22;58485;59.934;30.352;2022-08-21T02:18:37;27.32;47.86
65371;DHT22;58485;59.934;30.352;2022-08-21T02:19:30;27.32;47.87
65371;DHT22;58485;59.934;30.352;2022-08-21T02:20:28;27.32;47.87
65371;DHT22;58485;59.934;30.352;2022-08-21T02:21:21;27.30;47.87
65371;DHT22;58485;59.934;30.352;2022-08-21T02:22:13;27.32;47.86
65371;DHT22;58485;59.934;30.352;2022-08-21T02:23:09;27.31;47.84
65371;DHT22;58485;59.934;30.352;2022-08-21T02:24:01;27.32;47.85
65371;DHT22;58485;59.934;30.352;2022-08-21T02:24:54;27.31;47.85
65371;DHT22;58485;59.934;30.352;2022-08-21T02:25:45;27.31;47.84
65371;DHT22;58485;59.934;30.352;2022-08-21T02:26:37;27.29;47.85
65371;DHT22;58485;59.934;30.352;2022-08-21T02:27:29;27.32;47.85
65371;DHT22;58485;59.934;30.352;2022-08-21T02:28:20;27.30;47.87
65371;DHT22;58485;59.934;30.352;2022-08-21T02:29:13;27.30;47.89
65371;DHT22;58485;59.934;30.352;2022-08-21T02:30:05;27.29;47.91
65371;DHT22;58485;59.934;30.352;2022-08-21T02:30:57;27.30;47.89
65371;DHT22;58485;59.934;30.352;2022-08-21T02:31:49;27.29;47.91
65371;DHT22;58485;59.934;30.352;2022-08-21T02:32:41;27.29;47.92
65371;DHT22;58485;59.934;30.352;2022-08-21T02:33:33;27.30;47.92
65371;DHT22;58485;59.934;30.352;2022-08-21T02:34:24;27.30;47.92
65371;DHT22;58485;59.934;30.352;2022-08-21T02:35:17;27.30;47.93
65371;DHT22;58485;59.934;30.352;2022-08-21T02:36:09;27.29;47.96
65371;DHT22;58485;59.934;30.352;2022-08-21T02:37:02;27.30;47.96
65371;DHT22;58485;59.934;30.352;2022-08-21T02:37:55;27.30;47.99
65371;DHT22;58485;59.934;30.352;2022-08-21T02:38:52;27.28;48.02
65371;DHT22;58485;59.934;30.352;2022-08-21T02:39:43;27.28;48.01
65371;DHT22;58485;59.934;30.352;2022-08-21T02:40:38;27.29;48.03
65371;DHT22;58485;59.934;30.352;2022-08-21T02:41:30;27.27;48.02
65371;DHT22;58485;59.934;30.352;2022-08-21T02:42:22;27.28;48.01
65371;DHT22;58485;59.934;30.352;2022-08-21T02:43:14;27.28;47.96
65371;DHT22;58485;59.934;30.352;2022-08-21T02:44:07;27.26;47.97
65371;DHT22;58485;59.934;30.352;2022-08-21T02:44:58;27.28;47.96
65371;DHT22;58485;59.934;30.352;2022-08-21T02:45:51;27.27;47.95
65371;DHT22;58485;59.934;30.352;2022-08-21T02:46:42;27.28;47.96
65371;DHT22;58485;59.934;30.352;2022-08-21T02:47:34;27.26;47.96
65371;DHT22;58485;59.934;30.352;2022-08-21T02:48:29;27.27;47.96
65371;DHT22;58485;59.934;30.352;2022-08-21T02:49:22;27.26;47.95
65371;DHT22;58485;59.934;30.352;2022-08-21T02:50:13;27.26;47.96
65371;DHT22;58485;59.934;30.352;2022-08-21T02:51:05;27.25;47.97
65371;DHT22;58485;59.934;30.352;2022-08-21T02:51:58;27.25;47.96
65371;DHT22;58485;59.934;30.352;2022-08-21T02:52:50;27.26;47.95
65371;DHT22;58485;59.934;30.352;2022-08-21T02:53:44;27.26;47.95
65371;DHT22;58485;59.934;30.352;2022-08-21T02:54:38;27.26;47.96
65371;DHT22;58485;59.934;30.352;2022-08-21T02:55:30;27.25;47.95
65371;DHT22;58485;59.934;30.352;2022-08-21T02:56:23;27.24;47.96
65371;DHT22;58485;59.934;30.352;2022-08-21T02:57:15;27.25;47.98
65371;DHT22;58485;59.934;30.352;2022-08-21T02:58:07;27.24;47.97
65371;DHT22;58485;59.934;30.352;2022-08-21T02:58:58;27.25;47.97
65371;DHT22;58485;59.934;30.352;2022-08-21T02:59:51;27.24;47.97
65371;DHT22;58485;59.934;30.352;2022-08-21T03:00:42;27.24;47.99
65371;DHT22;58485;59.934;30.352;2022-08-21T03:01:34;27.23;47.98
65371;DHT22;58485;59.934;30.352;2022-08-21T03:02:27;27.24;47.99
65371;DHT22;58485;59.934;30.352;2022-08-21T03:03:19;27.24;47.99
65371;DHT22;58485;59.934;30.352;2022-08-21T03:04:11;27.23;47.99
65371;DHT22;58485;59.934;30.352;2022-08-21T03:05:03;27.24;47.99
65371;DHT22;58485;59.934;30.352;2022-08-21T03:05:56;27.23;48.03
65371;DHT22;58485;59.934;30.352;2022-08-21T03:06:47;27.24;48.04
65371;DHT22;58485;59.934;30.352;2022-08-21T03:07:40;27.24;48.05
65371;DHT22;58485;59.934;30.352;2022-08-21T03:08:31;27.23;48.06
65371;DHT22;58485;59.934;30.352;2022-08-21T03:09:24;27.22;48.05
65371;DHT22;58485;59.934;30.352;2022-08-21T03:10:16;27.22;48.06
65371;DHT22;58485;59.934;30.352;2022-08-21T03:11:09;27.23;48.06
65371;DHT22;58485;59.934;30.352;2022-08-21T03:12:00;27.22;48.05
65371;DHT22;58485;59.934;30.352;2022-08-21T03:12:54;27.22;48.05
65371;DHT22;58485;59.934;30.352;2022-08-21T03:13:45;27.24;48.05
65371;DHT22;58485;59.934;30.352;2022-08-21T03:14:37;27.22;48.05
65371;DHT22;58485;59.934;30.352;2022-08-21T03:15:29;27.21;48.05
65371;DHT22;58485;59.934;30.352;2022-08-21T03:16:22;27.21;48.05
65371;DHT22;58485;59.934;30.352;2022-08-21T03:17:13;27.22;48.03
65371;DHT22;58485;59.934;30.352;2022-08-21T03:18:06;27.22;48.03
65371;DHT22;58485;59.934;30.352;2022-08-21T03:18:57;27.23;48.03
65371;DHT22;58485;59.934;30.352;2022-08-21T03:19:50;27.22;48.05
65371;DHT22;58485;59.934;30.352;2022-08-21T03:20:42;27.22;48.06
65371;DHT22;58485;59.934;30.352;2022-08-21T03:21:35;27.21;48.06
65371;DHT22;58485;59.934;30.352;2022-08-21T03:22:27;27.20;48.08
65371;DHT22;58485;59.934;30.352;2022-08-21T03:23:19;27.21;48.07
65371;DHT22;58485;59.934;30.352;2022-08-21T03:24:10;27.20;48.09
65371;DHT22;58485;59.934;30.352;2022-08-21T03:25:03;27.20;48.11
65371;DHT22;58485;59.934;30.352;2022-08-21T03:25:57;27.21;48.11
65371;DHT22;58485;59.934;30.352;2022-08-21T03:26:49;27.20;48.11
65371;DHT22;58485;59.934;30.352;2022-08-21T03:27:41;27.20;48.11
65371;DHT22;58485;59.934;30.352;2022-08-21T03:28:34;27.20;48.09
65371;DHT22;58485;59.934;30.352;2022-08-21T03:29:25;27.20;48.10
65371;DHT22;58485;59.934;30.352;2022-08-21T03:30:19;27.19;48.09
65371;DHT22;58485;59.934;30.352;2022-08-21T03:31:10;27.19;48.12
65371;DHT22;58485;59.934;30.352;2022-08-21T03:32:03;27.20;48.14
65371;DHT22;58485;59.934;30.352;2022-08-21T03:32:54;27.20;48.12
65371;DHT22;58485;59.934;30.352;2022-08-21T03:33:45;27.20;48.13
65371;DHT22;58485;59.934;30.352;2022-08-21T03:34:38;27.19;48.12
65371;DHT22;58485;59.934;30.352;2022-08-21T03:35:30;27.20;48.11
65371;DHT22;58485;59.934;30.352;2022-08-21T03:36:22;27.20;48.08
65371;DHT22;58485;59.934;30.352;2022-08-21T03:37:15;27.19;48.09
65371;DHT22;58485;59.934;30.352;2022-08-21T03:38:08;27.20;48.09
65371;DHT22;58485;59.934;30.352;2022-08-21T03:39:00;27.17;48.10
65371;DHT22;58485;59.934;30.352;2022-08-21T03:39:51;27.19;48.12
65371;DHT22;58485;59.934;30.352;2022-08-21T03:40:43;27.17;48.12
65371;DHT22;58485;59.934;30.352;2022-08-21T03:41:36;27.17;48.14
65371;DHT22;58485;59.934;30.352;2022-08-21T03:42:28;27.17;48.12
65371;DHT22;58485;59.934;30.352;2022-08-21T03:43:20;27.17;48.11
65371;DHT22;58485;59.934;30.352;2022-08-21T03:44:12;27.16;48.12
65371;DHT22;58485;59.934;30.352;2022-08-21T03:45:05;27.17;48.10
65371;DHT22;58485;59.934;30.352;2022-08-21T03:45:58;27.17;48.11
65371;DHT22;58485;59.934;30.352;2022-08-21T03:46:50;27.16;48.11
65371;DHT22;58485;59.934;30.352;2022-08-21T03:47:51;27.15;48.12
65371;DHT22;58485;59.934;30.352;2022-08-21T03:48:43;27.16;48.11
65371;DHT22;58485;59.934;30.352;2022-08-21T03:49:35;27.16;48.12
65371;DHT22;58485;59.934;30.352;2022-08-21T03:50:29;27.16;48.09
65371;DHT22;58485;59.934;30.352;2022-08-21T03:51:22;27.16;48.11
65371;DHT22;58485;59.934;30.352;2022-08-21T03:52:14;27.15;48.10
65371;DHT22;58485;59.934;30.352;2022-08-21T03:53:07;27.16;48.11
65371;DHT22;58485;59.934;30.352;2022-08-21T03:53:59;27.14;48.13
65371;DHT22;58485;59.934;30.352;2022-08-21T03:54:51;27.15;48.15
65371;DHT22;58485;59.934;30.352;2022-08-21T03:55:44;27.13;48.15
65371;DHT22;58485;59.934;30.352;2022-08-21T03:56:36;27.14;48.15
65371;DHT22;58485;59.934;30.352;2022-08-21T03:57:29;27.15;48.16
65371;DHT22;58485;59.934;30.352;2022-08-21T03:58:23;27.14;48.18
65371;DHT22;58485;59.934;30.352;2022-08-21T03:59:17;27.13;48.18
65371;DHT22;58485;59.934;30.352;2022-08-21T04:00:10;27.14;48.21
65371;DHT22;58485;59.934;30.352;2022-08-21T04:01:05;27.13;48.21
65371;DHT22;58485;59.934;30.352;2022-08-21T04:01:58;27.13;48.21
65371;DHT22;58485;59.934;30.352;2022-08-21T04:02:51;27.13;48.21
65371;DHT22;58485;59.934;30.352;2022-08-21T04:03:42;27.12;48.22
65371;DHT22;58485;59.934;30.352;2022-08-21T04:04:35;27.13;48.23
65371;DHT22;58485;59.934;30.352;2022-08-21T04:05:26;27.12;48.23
65371;DHT22;58485;59.934;30.352;2022-08-21T04:06:18;27.12;48.22
65371;DHT22;58485;59.934;30.352;2022-08-21T04:07:10;27.13;48.21
65371;DHT22;58485;59.934;30.352;2022-08-21T04:08:04;27.11;48.21
65371;DHT22;58485;59.934;30.352;2022-08-21T04:08:57;27.12;48.21
65371;DHT22;58485;59.934;30.352;2022-08-21T04:09:48;27.11;48.21
65371;DHT22;58485;59.934;30.352;2022-08-21T04:10:41;27.11;48.22
65371;DHT22;58485;59.934;30.352;2022-08-21T04:11:32;27.11;48.22
65371;DHT22;58485;59.934;30.352;2022-08-21T04:12:26;27.12;48.22
65371;DHT22;58485;59.934;30.352;2022-08-21T04:13:17;27.12;48.25
65371;DHT22;58485;59.934;30.352;2022-08-21T04:14:10;27.11;48.25
65371;DHT22;58485;59.934;30.352;2022-08-21T04:15:01;27.10;48.26
65371;DHT22;58485;59.934;30.352;2022-08-21T04:15:54;27.10;48.27
65371;DHT22;58485;59.934;30.352;2022-08-21T04:16:46;27.10;48.28
65371;DHT22;58485;59.934;30.352;2022-08-21T04:17:38;27.11;48.30
65371;DHT22;58485;59.934;30.352;2022-08-21T04:18:29;27.11;48.28
65371;DHT22;58485;59.934;30.352;2022-08-21T04:19:22;27.11;48.28
65371;DHT22;58485;59.934;30.352;2022-08-21T04:20:14;27.10;48.28
65371;DHT22;58485;59.934;30.352;2022-08-21T04:21:06;27.11;48.28
65371;DHT22;58485;59.934;30.352;2022-08-21T04:22:00;27.10;48.29
65371;DHT22;58485;59.934;30.352;2022-08-21T04:22:52;27.10;48.30
65371;DHT22;58485;59.934;30.352;2022-08-21T04:23:44;27.11;48.31
65371;DHT22;58485;59.934;30.352;2022-08-21T04:24:36;27.10;48.34
65371;DHT22;58485;59.934;30.352;2022-08-21T04:25:29;27.10;48.34
65371;DHT22;58485;59.934;30.352;2022-08-21T04:26:20;27.10;48.32
65371;DHT22;58485;59.934;30.352;2022-08-21T04:27:13;27.10;48.33
65371;DHT22;58485;59.934;30.352;2022-08-21T04:28:05;27.09;48.34
65371;DHT22;58485;59.934;30.352;2022-08-21T04:28:58;27.10;48.34
65371;DHT22;58485;59.934;30.352;2022-08-21T04:29:49;27.09;48.34
65371;DHT22;58485;59.934;30.352;2022-08-21T04:30:41;27.09;48.34
65371;DHT22;58485;59.934;30.352;2022-08-21T04:31:33;27.08;48.33
65371;DHT22;58485;59.934;30.352;2022-08-21T04:32:27;27.10;48.34
65371;DHT22;58485;59.934;30.352;2022-08-21T04:33:18;27.08;48.33
65371;DHT22;58485;59.934;30.352;2022-08-21T04:34:11;27.08;48.33
65371;DHT22;58485;59.934;30.352;2022-08-21T04:35:04;27.08;48.33
65371;DHT22;58485;59.934;30.352;2022-08-21T04:35:58;27.09;48.34
65371;DHT22;58485;59.934;30.352;2022-08-21T04:36:49;27.08;48.32
65371;DHT22;58485;59.934;30.352;2022-08-21T04:37:41;27.09;48.34
65371;DHT22;58485;59.934;30.352;2022-08-21T04:38:33;27.08;48.34
65371;DHT22;58485;59.934;30.352;2022-08-21T04:39:25;27.08;48.34
65371;DHT22;58485;59.934;30.352;2022-08-21T04:40:18;27.08;48.34
65371;DHT22;58485;59.934;30.352;2022-08-21T04:41:12;27.07;48.33
65371;DHT22;58485;59.934;30.352;2022-08-21T04:42:03;27.07;48.37
65371;DHT22;58485;59.934;30.352;2022-08-21T04:43:02;27.07;48.37
65371;DHT22;58485;59.934;30.352;2022-08-21T04:43:56;27.08;48.38
65371;DHT22;58485;59.934;30.352;2022-08-21T04:44:49;27.07;48.38
65371;DHT22;58485;59.934;30.352;2022-08-21T04:45:43;27.06;48.38
65371;DHT22;58485;59.934;30.352;2022-08-21T04:46:38;27.07;48.41
65371;DHT22;58485;59.934;30.352;2022-08-21T04:47:29;27.08;48.44
65371;DHT22;58485;59.934;30.352;2022-08-21T04:48:22;27.05;48.46
65371;DHT22;58485;59.934;30.352;2022-08-21T04:49:14;27.06;48.47
65371;DHT22;58485;59.934;30.352;2022-08-21T04:50:08;27.05;48.50
65371;DHT22;58485;59.934;30.352;2022-08-21T04:51:02;27.06;48.54
65371;DHT22;58485;59.934;30.352;2022-08-21T04:51:57;27.05;48.55
65371;DHT22;58485;59.934;30.352;2022-08-21T04:52:49;27.05;48.54
65371;DHT22;58485;59.934;30.352;2022-08-21T04:53:44;27.04;48.56
65371;DHT22;58485;59.934;30.352;2022-08-21T04:54:37;27.05;48.53
65371;DHT22;58485;59.934;30.352;2022-08-21T04:55:30;27.05;48.53
65371;DHT22;58485;59.934;30.352;2022-08-21T04:56:23;27.05;48.53
65371;DHT22;58485;59.934;30.352;2022-08-21T04:57:18;27.06;48.54
65371;DHT22;58485;59.934;30.352;2022-08-21T04:58:12;27.04;48.56
65371;DHT22;58485;59.934;30.352;2022-08-21T04:59:12;27.04;48.58
65371;DHT22;58485;59.934;30.352;2022-08-21T05:00:07;27.05;48.59
65371;DHT22;58485;59.934;30.352;2022-08-21T05:01:04;27.04;48.61
65371;DHT22;58485;59.934;30.352;2022-08-21T05:01:57;27.02;48.61
65371;DHT22;58485;59.934;30.352;2022-08-21T05:02:53;27.02;48.62
65371;DHT22;58485;59.934;30.352;2022-08-21T05:03:48;27.02;48.63
65371;DHT22;58485;59.934;30.352;2022-08-21T05:04:45;27.04;48.66
65371;DHT22;58485;59.934;30.352;2022-08-21T05:05:39;27.02;48.64
65371;DHT22;58485;59.934;30.352;2022-08-21T05:06:34;27.02;48.65
65371;DHT22;58485;59.934;30.352;2022-08-21T05:07:29;27.01;48.65
65371;DHT22;58485;59.934;30.352;2022-08-21T05:08:24;26.99;48.66
65371;DHT22;58485;59.934;30.352;2022-08-21T05:09:18;27.01;48.69
65371;DHT22;58485;59.934;30.352;2022-08-21T05:10:12;27.01;48.68
65371;DHT22;58485;59.934;30.352;2022-08-21T05:11:04;27.00;48.70
65371;DHT22;58485;59.934;30.352;2022-08-21T05:11:57;27.02;48.73
65371;DHT22;58485;59.934;30.352;2022-08-21T05:12:49;27.01;48.73
65371;DHT22;58485;59.934;30.352;2022-08-21T05:13:42;27.01;48.74
65371;DHT22;58485;59.934;30.352;2022-08-21T05:14:34;27.00;48.76
65371;DHT22;58485;59.934;30.352;2022-08-21T05:15:27;26.99;48.76
65371;DHT22;58485;59.934;30.352;2022-08-21T05:16:18;27.00;48.74
65371;DHT22;58485;59.934;30.352;2022-08-21T05:17:10;27.00;48.73
65371;DHT22;58485;59.934;30.352;2022-08-21T05:18:01;27.01;48.72
65371;DHT22;58485;59.934;30.352;2022-08-21T05:18:53;27.00;48.72
65371;DHT22;58485;59.934;30.352;2022-08-21T05:19:45;27.01;48.73
65371;DHT22;58485;59.934;30.352;2022-08-21T05:20:37;27.00;48.72
65371;DHT22;58485;59.934;30.352;2022-08-21T05:21:28;27.00;48.73
65371;DHT22;58485;59.934;30.352;2022-08-21T05:22:21;27.00;48.73
65371;DHT22;58485;59.934;30.352;2022-08-21T05:23:14;27.00;48.72
65371;DHT22;58485;59.934;30.352;2022-08-21T05:24:06;26.99;48.75
65371;DHT22;58485;59.934;30.352;2022-08-21T05:24:58;27.00;48.77
65371;DHT22;58485;59.934;30.352;2022-08-21T05:25:51;27.00;48.78
65371;DHT22;58485;59.934;30.352;2022-08-21T05:26:43;26.99;48.80
65371;DHT22;58485;59.934;30.352;2022-08-21T05:27:36;26.99;48.80
65371;DHT22;58485;59.934;30.352;2022-08-21T05:28:28;26.98;48.81